sensor_id;sensor_type;location;lat;lon;timestamp;P1;durP1;ratioP1;P2;durP2;ratioP2
20593;SDS011;10455;48.732;10.266;2022-11-20T00:04:38;17.43;;;14.10;;
20593;SDS011;10455;48.732;10.266;2022-11-20T00:09:40;16.73;;;14.37;;
20593;SDS011;10455;48.732;10.266;2022-11-20T00:14:42;17.13;;;12.90;;
20593;SDS011;10455;48.732;10.266;2022-11-20T00:19:46;17.33;;;14.00;;
20593;SDS011;10455;48.732;10.266;2022-11-20T00:24:48;18.73;;;15.40;;
20593;SDS011;10455;48.732;10.266;2022-11-20T00:29:51;15.83;;;13.60;;
20593;SDS011;10455;48.732;10.266;2022-11-20T00:34:54;17.77;;;14.27;;
20593;SDS011;10455;48.732;10.266;2022-11-20T00:39:56;14.23;;;12.77;;
20593;SDS011;10455;48.732;10.266;2022-11-20T00:44:58;13.60;;;11.57;;
20593;SDS011;10455;48.732;10.266;2022-11-20T00:50:02;13.67;;;11.53;;
20593;SDS011;10455;48.732;10.266;2022-11-20T00:55:05;14.57;;;12.43;;
20593;SDS011;10455;48.732;10.266;2022-11-20T01:00:08;13.83;;;11.03;;
20593;SDS011;10455;48.732;10.266;2022-11-20T01:05:12;14.77;;;11.20;;
20593;SDS011;10455;48.732;10.266;2022-11-20T01:10:14;14.67;;;11.80;;
20593;SDS011;10455;48.732;10.266;2022-11-20T01:15:17;12.87;;;11.57;;
20593;SDS011;10455;48.732;10.266;2022-11-20T01:20:20;13.20;;;11.17;;
20593;SDS011;10455;48.732;10.266;2022-11-20T01:25:22;12.83;;;10.93;;
20593;SDS011;10455;48.732;10.266;2022-11-20T01:30:24;16.97;;;11.97;;
20593;SDS011;10455;48.732;10.266;2022-11-20T01:35:27;13.93;;;10.77;;
20593;SDS011;10455;48.732;10.266;2022-11-20T01:40:29;12.77;;;10.33;;
20593;SDS011;10455;48.732;10.266;2022-11-20T01:45:51;13.97;;;10.37;;
20593;SDS011;10455;48.732;10.266;2022-11-20T01:51:01;14.43;;;9.83;;
20593;SDS011;10455;48.732;10.266;2022-11-20T01:56:05;13.60;;;10.40;;
20593;SDS011;10455;48.732;10.266;2022-11-20T02:01:11;11.47;;;8.90;;
20593;SDS011;10455;48.732;10.266;2022-11-20T02:06:17;11.00;;;9.77;;
20593;SDS011;10455;48.732;10.266;2022-11-20T02:11:24;11.57;;;9.53;;
20593;SDS011;10455;48.732;10.266;2022-11-20T02:16:26;11.07;;;9.77;;
20593;SDS011;10455;48.732;10.266;2022-11-20T02:21:35;11.17;;;10.03;;
20593;SDS011;10455;48.732;10.266;2022-11-20T02:26:46;12.17;;;9.83;;
20593;SDS011;10455;48.732;10.266;2022-11-20T02:31:50;10.77;;;8.47;;
20593;SDS011;10455;48.732;10.266;2022-11-20T02:36:53;10.87;;;8.30;;
20593;SDS011;10455;48.732;10.266;2022-11-20T02:41:58;11.10;;;8.63;;
20593;SDS011;10455;48.732;10.266;2022-11-20T02:47:02;10.40;;;8.60;;
20593;SDS011;10455;48.732;10.266;2022-11-20T02:52:04;9.53;;;8.53;;
20593;SDS011;10455;48.732;10.266;2022-11-20T02:57:08;9.57;;;8.33;;
20593;SDS011;10455;48.732;10.266;2022-11-20T03:02:09;9.43;;;8.43;;
20593;SDS011;10455;48.732;10.266;2022-11-20T03:07:11;10.10;;;7.73;;
20593;SDS011;10455;48.732;10.266;2022-11-20T03:30:16;8.70;;;7.20;;
20593;SDS011;10455;48.732;10.266;2022-11-20T03:35:17;9.50;;;6.83;;
20593;SDS011;10455;48.732;10.266;2022-11-20T03:40:19;7.83;;;7.03;;
20593;SDS011;10455;48.732;10.266;2022-11-20T03:45:23;7.07;;;6.37;;
20593;SDS011;10455;48.732;10.266;2022-11-20T03:50:25;7.83;;;6.37;;
20593;SDS011;10455;48.732;10.266;2022-11-20T03:55:26;7.40;;;6.10;;
20593;SDS011;10455;48.732;10.266;2022-11-20T04:00:30;6.67;;;6.07;;
20593;SDS011;10455;48.732;10.266;2022-11-20T04:05:32;7.87;;;6.30;;
20593;SDS011;10455;48.732;10.266;2022-11-20T04:10:34;8.43;;;4.87;;
20593;SDS011;10455;48.732;10.266;2022-11-20T04:15:37;6.20;;;5.60;;
20593;SDS011;10455;48.732;10.266;2022-11-20T04:20:39;7.70;;;5.70;;
20593;SDS011;10455;48.732;10.266;2022-11-20T04:25:41;6.10;;;5.53;;
20593;SDS011;10455;48.732;10.266;2022-11-20T04:30:44;6.77;;;5.60;;
20593;SDS011;10455;48.732;10.266;2022-11-20T04:35:46;6.30;;;5.57;;
20593;SDS011;10455;48.732;10.266;2022-11-20T04:40:49;7.90;;;6.57;;
20593;SDS011;10455;48.732;10.266;2022-11-20T04:45:52;6.50;;;5.90;;
20593;SDS011;10455;48.732;10.266;2022-11-20T04:50:55;7.03;;;5.90;;
20593;SDS011;10455;48.732;10.266;2022-11-20T04:55:59;7.07;;;6.07;;
20593;SDS011;10455;48.732;10.266;2022-11-20T05:01:03;7.47;;;6.33;;
20593;SDS011;10455;48.732;10.266;2022-11-20T05:06:06;6.83;;;6.13;;
20593;SDS011;10455;48.732;10.266;2022-11-20T05:11:09;8.93;;;7.03;;
20593;SDS011;10455;48.732;10.266;2022-11-20T05:16:14;8.63;;;7.33;;
20593;SDS011;10455;48.732;10.266;2022-11-20T05:21:17;10.53;;;7.20;;
20593;SDS011;10455;48.732;10.266;2022-11-20T05:26:20;9.30;;;8.30;;
20593;SDS011;10455;48.732;10.266;2022-11-20T05:31:25;14.07;;;9.80;;
20593;SDS011;10455;48.732;10.266;2022-11-20T05:36:27;15.07;;;10.13;;
20593;SDS011;10455;48.732;10.266;2022-11-20T05:41:29;11.30;;;9.70;;
20593;SDS011;10455;48.732;10.266;2022-11-20T05:46:32;13.40;;;10.03;;
20593;SDS011;10455;48.732;10.266;2022-11-20T05:51:34;10.17;;;9.03;;
20593;SDS011;10455;48.732;10.266;2022-11-20T05:56:36;9.90;;;9.00;;
20593;SDS011;10455;48.732;10.266;2022-11-20T06:01:39;9.30;;;8.27;;
20593;SDS011;10455;48.732;10.266;2022-11-20T06:06:41;11.07;;;9.27;;
20593;SDS011;10455;48.732;10.266;2022-11-20T06:11:43;8.70;;;7.80;;
20593;SDS011;10455;48.732;10.266;2022-11-20T06:16:46;9.53;;;8.50;;
20593;SDS011;10455;48.732;10.266;2022-11-20T06:21:48;8.37;;;7.67;;
20593;SDS011;10455;48.732;10.266;2022-11-20T06:26:50;8.33;;;7.53;;
20593;SDS011;10455;48.732;10.266;2022-11-20T06:31:53;8.23;;;7.33;;
20593;SDS011;10455;48.732;10.266;2022-11-20T06:36:55;9.17;;;8.13;;
20593;SDS011;10455;48.732;10.266;2022-11-20T06:41:57;9.50;;;8.07;;
20593;SDS011;10455;48.732;10.266;2022-11-20T06:47:01;8.57;;;7.77;;
20593;SDS011;10455;48.732;10.266;2022-11-20T06:52:03;9.17;;;8.33;;
20593;SDS011;10455;48.732;10.266;2022-11-20T06:57:05;9.47;;;8.43;;
20593;SDS011;10455;48.732;10.266;2022-11-20T07:02:10;10.20;;;8.90;;
20593;SDS011;10455;48.732;10.266;2022-11-20T07:07:12;10.57;;;9.40;;
20593;SDS011;10455;48.732;10.266;2022-11-20T07:12:14;12.80;;;9.43;;
20593;SDS011;10455;48.732;10.266;2022-11-20T07:17:17;10.83;;;9.40;;
20593;SDS011;10455;48.732;10.266;2022-11-20T07:22:19;10.83;;;9.33;;
20593;SDS011;10455;48.732;10.266;2022-11-20T07:27:22;13.23;;;10.00;;
20593;SDS011;10455;48.732;10.266;2022-11-20T07:32:25;10.67;;;9.50;;
20593;SDS011;10455;48.732;10.266;2022-11-20T07:37:27;9.47;;;8.40;;
20593;SDS011;10455;48.732;10.266;2022-11-20T07:42:29;9.13;;;8.23;;
20593;SDS011;10455;48.732;10.266;2022-11-20T07:47:35;9.87;;;8.30;;
20593;SDS011;10455;48.732;10.266;2022-11-20T07:52:37;9.87;;;8.00;;
20593;SDS011;10455;48.732;10.266;2022-11-20T07:57:40;9.83;;;7.80;;
20593;SDS011;10455;48.732;10.266;2022-11-20T08:02:43;9.33;;;7.90;;
20593;SDS011;10455;48.732;10.266;2022-11-20T08:07:45;9.57;;;7.10;;
20593;SDS011;10455;48.732;10.266;2022-11-20T08:12:47;7.77;;;6.97;;
20593;SDS011;10455;48.732;10.266;2022-11-20T08:18:10;10.03;;;7.20;;
20593;SDS011;10455;48.732;10.266;2022-11-20T08:23:13;8.20;;;7.30;;
20593;SDS011;10455;48.732;10.266;2022-11-20T08:28:14;7.57;;;6.40;;
20593;SDS011;10455;48.732;10.266;2022-11-20T08:33:18;7.97;;;6.30;;
20593;SDS011;10455;48.732;10.266;2022-11-20T08:38:20;7.63;;;6.83;;
20593;SDS011;10455;48.732;10.266;2022-11-20T08:43:22;8.93;;;6.70;;
20593;SDS011;10455;48.732;10.266;2022-11-20T08:48:25;6.63;;;5.93;;
20593;SDS011;10455;48.732;10.266;2022-11-20T08:53:27;10.67;;;8.10;;
20593;SDS011;10455;48.732;10.266;2022-11-20T08:58:29;6.80;;;5.80;;
20593;SDS011;10455;48.732;10.266;2022-11-20T09:03:32;7.10;;;6.40;;
20593;SDS011;10455;48.732;10.266;2022-11-20T09:08:34;7.27;;;6.40;;
20593;SDS011;10455;48.732;10.266;2022-11-20T09:13:37;7.60;;;6.10;;
20593;SDS011;10455;48.732;10.266;2022-11-20T09:18:40;8.60;;;6.90;;
20593;SDS011;10455;48.732;10.266;2022-11-20T09:23:42;7.47;;;6.67;;
20593;SDS011;10455;48.732;10.266;2022-11-20T09:28:45;11.03;;;7.90;;
20593;SDS011;10455;48.732;10.266;2022-11-20T09:33:48;13.70;;;9.33;;
20593;SDS011;10455;48.732;10.266;2022-11-20T09:38:50;9.93;;;8.90;;
20593;SDS011;10455;48.732;10.266;2022-11-20T09:43:54;8.37;;;7.20;;
20593;SDS011;10455;48.732;10.266;2022-11-20T09:49:09;8.20;;;6.33;;
20593;SDS011;10455;48.732;10.266;2022-11-20T09:54:21;7.27;;;6.20;;
20593;SDS011;10455;48.732;10.266;2022-11-20T09:59:31;7.33;;;6.63;;
20593;SDS011;10455;48.732;10.266;2022-11-20T10:04:36;6.30;;;5.70;;
20593;SDS011;10455;48.732;10.266;2022-11-20T10:09:49;7.40;;;6.00;;
20593;SDS011;10455;48.732;10.266;2022-11-20T10:14:58;6.30;;;5.70;;
20593;SDS011;10455;48.732;10.266;2022-11-20T10:20:14;5.27;;;4.77;;
20593;SDS011;10455;48.732;10.266;2022-11-20T10:25:21;5.90;;;5.40;;
20593;SDS011;10455;48.732;10.266;2022-11-20T10:30:27;4.87;;;4.47;;
20593;SDS011;10455;48.732;10.266;2022-11-20T10:35:33;6.40;;;4.97;;
20593;SDS011;10455;48.732;10.266;2022-11-20T10:40:38;4.83;;;4.33;;
20593;SDS011;10455;48.732;10.266;2022-11-20T10:45:46;5.03;;;4.63;;
20593;SDS011;10455;48.732;10.266;2022-11-20T10:56:20;7.43;;;4.90;;
20593;SDS011;10455;48.732;10.266;2022-11-20T11:01:25;5.60;;;5.10;;
20593;SDS011;10455;48.732;10.266;2022-11-20T11:06:33;5.50;;;5.00;;
20593;SDS011;10455;48.732;10.266;2022-11-20T11:11:38;5.37;;;4.87;;
20593;SDS011;10455;48.732;10.266;2022-11-20T11:16:48;7.00;;;5.20;;
20593;SDS011;10455;48.732;10.266;2022-11-20T11:21:53;4.50;;;4.10;;
20593;SDS011;10455;48.732;10.266;2022-11-20T11:26:57;4.83;;;4.27;;
20593;SDS011;10455;48.732;10.266;2022-11-20T11:32:05;4.67;;;4.27;;
20593;SDS011;10455;48.732;10.266;2022-11-20T11:37:13;4.73;;;4.23;;
20593;SDS011;10455;48.732;10.266;2022-11-20T11:42:18;8.93;;;6.27;;
20593;SDS011;10455;48.732;10.266;2022-11-20T11:47:21;15.07;;;7.70;;
20593;SDS011;10455;48.732;10.266;2022-11-20T11:52:27;10.47;;;8.17;;
20593;SDS011;10455;48.732;10.266;2022-11-20T11:57:33;6.53;;;5.93;;
20593;SDS011;10455;48.732;10.266;2022-11-20T12:02:46;5.47;;;4.53;;
20593;SDS011;10455;48.732;10.266;2022-11-20T12:07:57;3.70;;;3.40;;
20593;SDS011;10455;48.732;10.266;2022-11-20T12:13:04;2.63;;;2.42;;
20593;SDS011;10455;48.732;10.266;2022-11-20T12:18:17;2.50;;;2.30;;
20593;SDS011;10455;48.732;10.266;2022-11-20T12:34:15;2.90;;;2.53;;
20593;SDS011;10455;48.732;10.266;2022-11-20T12:39:30;2.97;;;2.40;;
20593;SDS011;10455;48.732;10.266;2022-11-20T12:44:40;2.70;;;2.50;;
20593;SDS011;10455;48.732;10.266;2022-11-20T12:50:13;2.30;;;2.10;;
20593;SDS011;10455;48.732;10.266;2022-11-20T12:55:25;2.50;;;2.10;;
20593;SDS011;10455;48.732;10.266;2022-11-20T13:00:37;2.27;;;2.13;;
20593;SDS011;10455;48.732;10.266;2022-11-20T13:05:49;2.50;;;2.30;;
20593;SDS011;10455;48.732;10.266;2022-11-20T13:10:58;3.13;;;2.90;;
20593;SDS011;10455;48.732;10.266;2022-11-20T13:16:10;3.17;;;2.67;;
20593;SDS011;10455;48.732;10.266;2022-11-20T13:21:20;4.13;;;3.83;;
20593;SDS011;10455;48.732;10.266;2022-11-20T13:26:23;4.60;;;4.20;;
20593;SDS011;10455;48.732;10.266;2022-11-20T13:31:29;4.90;;;2.97;;
20593;SDS011;10455;48.732;10.266;2022-11-20T13:36:34;3.63;;;3.33;;
20593;SDS011;10455;48.732;10.266;2022-11-20T13:41:36;5.50;;;4.33;;
20593;SDS011;10455;48.732;10.266;2022-11-20T13:46:40;4.23;;;3.83;;
20593;SDS011;10455;48.732;10.266;2022-11-20T13:51:47;3.13;;;2.83;;
20593;SDS011;10455;48.732;10.266;2022-11-20T13:56:54;5.07;;;3.50;;
20593;SDS011;10455;48.732;10.266;2022-11-20T14:02:08;3.57;;;3.27;;
20593;SDS011;10455;48.732;10.266;2022-11-20T14:07:14;4.57;;;3.20;;
20593;SDS011;10455;48.732;10.266;2022-11-20T14:12:19;4.00;;;3.60;;
20593;SDS011;10455;48.732;10.266;2022-11-20T14:17:22;3.67;;;3.37;;
20593;SDS011;10455;48.732;10.266;2022-11-20T14:22:27;6.50;;;3.67;;
20593;SDS011;10455;48.732;10.266;2022-11-20T14:27:29;4.83;;;3.30;;
20593;SDS011;10455;48.732;10.266;2022-11-20T14:32:35;4.20;;;3.60;;
20593;SDS011;10455;48.732;10.266;2022-11-20T14:37:38;4.53;;;2.70;;
20593;SDS011;10455;48.732;10.266;2022-11-20T14:42:43;3.33;;;3.00;;
20593;SDS011;10455;48.732;10.266;2022-11-20T14:47:45;2.47;;;2.17;;
20593;SDS011;10455;48.732;10.266;2022-11-20T14:52:53;4.37;;;2.47;;
20593;SDS011;10455;48.732;10.266;2022-11-20T14:57:56;3.70;;;2.57;;
20593;SDS011;10455;48.732;10.266;2022-11-20T15:03:00;3.87;;;2.53;;
20593;SDS011;10455;48.732;10.266;2022-11-20T15:08:07;4.97;;;2.50;;
20593;SDS011;10455;48.732;10.266;2022-11-20T15:13:11;3.63;;;1.80;;
20593;SDS011;10455;48.732;10.266;2022-11-20T15:18:16;2.73;;;2.30;;
20593;SDS011;10455;48.732;10.266;2022-11-20T15:23:23;4.50;;;2.53;;
20593;SDS011;10455;48.732;10.266;2022-11-20T15:28:28;2.00;;;1.90;;
20593;SDS011;10455;48.732;10.266;2022-11-20T15:33:32;2.97;;;2.03;;
20593;SDS011;10455;48.732;10.266;2022-11-20T15:38:36;2.30;;;2.10;;
20593;SDS011;10455;48.732;10.266;2022-11-20T15:43:38;2.67;;;2.00;;
20593;SDS011;10455;48.732;10.266;2022-11-20T15:48:41;3.47;;;1.97;;
20593;SDS011;10455;48.732;10.266;2022-11-20T15:53:46;4.83;;;2.27;;
20593;SDS011;10455;48.732;10.266;2022-11-20T15:58:48;3.33;;;1.93;;
20593;SDS011;10455;48.732;10.266;2022-11-20T16:03:50;2.30;;;1.70;;
20593;SDS011;10455;48.732;10.266;2022-11-20T16:08:53;2.67;;;2.40;;
20593;SDS011;10455;48.732;10.266;2022-11-20T16:13:55;3.13;;;2.40;;
20593;SDS011;10455;48.732;10.266;2022-11-20T16:19:15;1.90;;;1.80;;
20593;SDS011;10455;48.732;10.266;2022-11-20T16:24:19;2.43;;;2.10;;
20593;SDS011;10455;48.732;10.266;2022-11-20T16:29:21;3.30;;;2.50;;
20593;SDS011;10455;48.732;10.266;2022-11-20T16:34:23;3.07;;;2.30;;
20593;SDS011;10455;48.732;10.266;2022-11-20T16:39:26;4.20;;;2.60;;
20593;SDS011;10455;48.732;10.266;2022-11-20T16:44:28;25.17;;;11.20;;
20593;SDS011;10455;48.732;10.266;2022-11-20T16:49:30;14.03;;;7.23;;
20593;SDS011;10455;48.732;10.266;2022-11-20T16:54:33;8.37;;;5.77;;
20593;SDS011;10455;48.732;10.266;2022-11-20T16:59:35;5.20;;;4.07;;
20593;SDS011;10455;48.732;10.266;2022-11-20T17:04:37;13.07;;;7.23;;
20593;SDS011;10455;48.732;10.266;2022-11-20T17:09:41;17.43;;;9.07;;
20593;SDS011;10455;48.732;10.266;2022-11-20T17:14:43;5.40;;;4.67;;
20593;SDS011;10455;48.732;10.266;2022-11-20T17:19:45;6.73;;;4.40;;
20593;SDS011;10455;48.732;10.266;2022-11-20T17:24:48;6.03;;;4.27;;
20593;SDS011;10455;48.732;10.266;2022-11-20T17:29:50;6.30;;;4.93;;
20593;SDS011;10455;48.732;10.266;2022-11-20T17:34:53;15.20;;;8.60;;
20593;SDS011;10455;48.732;10.266;2022-11-20T17:39:59;7.03;;;5.70;;
20593;SDS011;10455;48.732;10.266;2022-11-20T17:45:01;6.27;;;5.17;;
20593;SDS011;10455;48.732;10.266;2022-11-20T17:50:04;16.73;;;11.90;;
20593;SDS011;10455;48.732;10.266;2022-11-20T17:55:08;9.13;;;6.60;;
20593;SDS011;10455;48.732;10.266;2022-11-20T18:00:10;14.17;;;10.40;;
20593;SDS011;10455;48.732;10.266;2022-11-20T18:05:15;9.23;;;8.33;;
20593;SDS011;10455;48.732;10.266;2022-11-20T18:10:18;11.13;;;8.13;;
20593;SDS011;10455;48.732;10.266;2022-11-20T18:15:20;6.23;;;5.63;;
20593;SDS011;10455;48.732;10.266;2022-11-20T18:20:22;8.17;;;6.97;;
20593;SDS011;10455;48.732;10.266;2022-11-20T18:25:26;7.27;;;6.43;;
20593;SDS011;10455;48.732;10.266;2022-11-20T18:30:28;8.03;;;6.33;;
20593;SDS011;10455;48.732;10.266;2022-11-20T18:35:29;6.33;;;5.00;;
20593;SDS011;10455;48.732;10.266;2022-11-20T18:40:34;3.93;;;3.63;;
20593;SDS011;10455;48.732;10.266;2022-11-20T18:45:36;4.43;;;4.00;;
20593;SDS011;10455;48.732;10.266;2022-11-20T18:50:38;6.30;;;5.70;;
20593;SDS011;10455;48.732;10.266;2022-11-20T18:55:42;6.23;;;5.30;;
20593;SDS011;10455;48.732;10.266;2022-11-20T19:00:43;5.43;;;4.93;;
20593;SDS011;10455;48.732;10.266;2022-11-20T19:05:45;7.53;;;5.00;;
20593;SDS011;10455;48.732;10.266;2022-11-20T19:10:49;8.00;;;5.00;;
20593;SDS011;10455;48.732;10.266;2022-11-20T19:15:50;5.40;;;4.90;;
20593;SDS011;10455;48.732;10.266;2022-11-20T19:20:52;6.03;;;5.33;;
20593;SDS011;10455;48.732;10.266;2022-11-20T19:25:58;5.63;;;5.13;;
20593;SDS011;10455;48.732;10.266;2022-11-20T19:31:01;5.00;;;4.60;;
20593;SDS011;10455;48.732;10.266;2022-11-20T19:36:07;4.47;;;3.83;;
20593;SDS011;10455;48.732;10.266;2022-11-20T19:41:11;5.40;;;3.60;;
20593;SDS011;10455;48.732;10.266;2022-11-20T19:46:14;6.80;;;4.57;;
20593;SDS011;10455;48.732;10.266;2022-11-20T19:51:18;4.03;;;3.70;;
20593;SDS011;10455;48.732;10.266;2022-11-20T19:56:23;4.63;;;3.40;;
20593;SDS011;10455;48.732;10.266;2022-11-20T20:01:27;2.03;;;1.90;;
20593;SDS011;10455;48.732;10.266;2022-11-20T20:06:30;2.73;;;2.50;;
20593;SDS011;10455;48.732;10.266;2022-11-20T20:11:35;2.73;;;2.27;;
20593;SDS011;10455;48.732;10.266;2022-11-20T20:16:37;5.13;;;3.73;;
20593;SDS011;10455;48.732;10.266;2022-11-20T20:21:39;4.27;;;3.87;;
20593;SDS011;10455;48.732;10.266;2022-11-20T20:26:43;5.80;;;4.80;;
20593;SDS011;10455;48.732;10.266;2022-11-20T20:31:45;4.03;;;3.10;;
20593;SDS011;10455;48.732;10.266;2022-11-20T20:36:47;3.93;;;3.63;;
20593;SDS011;10455;48.732;10.266;2022-11-20T20:41:50;6.33;;;4.53;;
20593;SDS011;10455;48.732;10.266;2022-11-20T20:46:52;3.00;;;2.80;;
20593;SDS011;10455;48.732;10.266;2022-11-20T20:51:54;4.03;;;3.63;;
20593;SDS011;10455;48.732;10.266;2022-11-20T20:56:57;3.50;;;3.20;;
20593;SDS011;10455;48.732;10.266;2022-11-20T21:01:59;4.17;;;3.70;;
20593;SDS011;10455;48.732;10.266;2022-11-20T21:07:01;4.93;;;3.93;;
20593;SDS011;10455;48.732;10.266;2022-11-20T21:12:04;5.83;;;4.50;;
20593;SDS011;10455;48.732;10.266;2022-11-20T21:17:06;4.80;;;4.40;;
20593;SDS011;10455;48.732;10.266;2022-11-20T21:22:08;5.20;;;3.80;;
20593;SDS011;10455;48.732;10.266;2022-11-20T21:27:11;4.40;;;4.00;;
20593;SDS011;10455;48.732;10.266;2022-11-20T21:32:13;5.57;;;4.43;;
20593;SDS011;10455;48.732;10.266;2022-11-20T21:37:15;6.50;;;6.00;;
20593;SDS011;10455;48.732;10.266;2022-11-20T21:42:18;5.47;;;4.97;;
20593;SDS011;10455;48.732;10.266;2022-11-20T21:47:20;4.37;;;4.00;;
20593;SDS011;10455;48.732;10.266;2022-11-20T21:57:37;6.90;;;4.80;;
20593;SDS011;10455;48.732;10.266;2022-11-20T22:02:39;5.70;;;4.90;;
20593;SDS011;10455;48.732;10.266;2022-11-20T22:07:41;5.43;;;4.93;;
20593;SDS011;10455;48.732;10.266;2022-11-20T22:12:46;5.10;;;4.60;;
20593;SDS011;10455;48.732;10.266;2022-11-20T22:17:47;5.30;;;4.80;;
20593;SDS011;10455;48.732;10.266;2022-11-20T22:23:07;5.97;;;4.87;;
20593;SDS011;10455;48.732;10.266;2022-11-20T22:28:10;5.13;;;4.63;;
20593;SDS011;10455;48.732;10.266;2022-11-20T22:33:12;5.53;;;4.83;;
20593;SDS011;10455;48.732;10.266;2022-11-20T22:38:14;4.97;;;4.30;;
20593;SDS011;10455;48.732;10.266;2022-11-20T22:43:17;4.03;;;3.63;;
20593;SDS011;10455;48.732;10.266;2022-11-20T22:48:19;3.70;;;3.40;;
20593;SDS011;10455;48.732;10.266;2022-11-20T22:53:21;4.57;;;3.07;;
20593;SDS011;10455;48.732;10.266;2022-11-20T22:58:25;3.20;;;2.90;;
20593;SDS011;10455;48.732;10.266;2022-11-20T23:03:28;3.80;;;2.73;;
20593;SDS011;10455;48.732;10.266;2022-11-20T23:08:30;3.90;;;2.50;;
20593;SDS011;10455;48.732;10.266;2022-11-20T23:13:34;3.87;;;2.80;;
20593;SDS011;10455;48.732;10.266;2022-11-20T23:18:37;3.20;;;2.57;;
20593;SDS011;10455;48.732;10.266;2022-11-20T23:23:39;4.57;;;2.90;;
20593;SDS011;10455;48.732;10.266;2022-11-20T23:28:43;4.37;;;2.70;;
20593;SDS011;10455;48.732;10.266;2022-11-20T23:33:45;2.30;;;2.10;;
20593;SDS011;10455;48.732;10.266;2022-11-20T23:38:47;2.40;;;2.20;;
20593;SDS011;10455;48.732;10.266;2022-11-20T23:43:51;2.37;;;2.17;;
20593;SDS011;10455;48.732;10.266;2022-11-20T23:48:53;4.00;;;1.80;;
20593;SDS011;10455;48.732;10.266;2022-11-20T23:53:55;3.43;;;1.87;;
20593;SDS011;10455;48.732;10.266;2022-11-20T23:58:58;5.03;;;2.40;;
